Station Historical Data
Daily Summary for January 22, 2017 Units:  Metric    English   Both
« Previous Day
Next Day »
Daily Weekly Monthly Yearly Custom
  High: Low: Average:
Temperature: 8.4 °C 2.7 °C 5.1 °C
Dew Point: 7.4 °C 1.9 °C 4.3 °C
Humidity: 97% 92% 95%
Wind Speed: 22.5km/h 0km/h 6.1km/h
Wind Gust: 32.2km/h - -
Wind- - ENE
Pressure: 1007 hPa 1003.9 hPa -
Precipitation: 0 mm    
Historical Graphs
 
 
Tabular Data for January 22, 2017
Time Temperature Dew Point Pressure Wind Wind Speed Wind Gust Humidity Rainfall Rate (Hourly)
00:04 7.9 °C 7.2 °C 1005 hPa Calm     95% 0 mm
00:09 7.9 °C 7.2 °C 1005 hPa Calm     95% 0 mm
00:14 8 °C 7.2 °C 1005 hPa Calm     95% 0 mm
00:19 8 °C 7.2 °C 1005 hPa Calm     95% 0 mm
00:24 8.1 °C 7.3 °C 1005 hPa Calm     95% 0 mm
00:29 8.2 °C 7.4 °C 1005 hPa Calm     95% 0 mm
00:34 8.1 °C 7.3 °C 1005 hPa Calm     95% 0 mm
00:39 7.9 °C 7 °C 1005 hPa Calm     94% 0 mm
00:44 7.7 °C 6.9 °C 1005 hPa Calm     95% 0 mm
00:49 7.5 °C 6.6 °C 1005 hPa Calm     94% 0 mm
00:54 7.6 °C 6.8 °C 1005 hPa Calm     95% 0 mm
00:59 7.4 °C 6.7 °C 1004.6 hPa Calm     95% 0 mm
01:05 7.4 °C 6.7 °C 1004.6 hPa Calm     95% 0 mm
01:10 7.2 °C 6.3 °C 1004.6 hPa Calm     94% 0 mm
01:15 7.1 °C 6.4 °C 1004.6 hPa Calm     95% 0 mm
01:20 7.1 °C 6.4 °C 1004.6 hPa Calm     95% 0 mm
01:25 6.9 °C 6.1 °C 1004.6 hPa Calm     94% 0 mm
01:30 6.9 °C 6.2 °C 1004.6 hPa Calm     95% 0 mm
01:35 6.7 °C 5.8 °C 1005 hPa Calm     94% 0 mm
01:40 6.5 °C 5.8 °C 1005 hPa Calm     95% 0 mm
01:45 6.6 °C 5.8 °C 1005 hPa Calm     95% 0 mm
01:50 6.5 °C 5.8 °C 1005 hPa Calm     95% 0 mm
01:55 6.3 °C 5.6 °C 1005 hPa Calm     95% 0 mm
02:00 6.2 °C 5.5 °C 1005 hPa Calm     95% 0 mm
02:05 6.1 °C 5.4 °C 1005 hPa Calm     95% 0 mm
02:10 6.1 °C 5.3 °C 1005.3 hPa Calm     95% 0 mm
02:15 5.9 °C 5.2 °C 1005.3 hPa Calm     95% 0 mm
02:20 5.6 °C 4.9 °C 1005.3 hPa Calm     95% 0 mm
02:25 5.4 °C 4.7 °C 1005.3 hPa Calm     95% 0 mm
02:30 5.3 °C 4.6 °C 1005.3 hPa Calm     95% 0 mm
02:35 5.5 °C 4.8 °C 1005.3 hPa Calm     95% 0 mm
02:40 5.6 °C 4.8 °C 1005.3 hPa Calm     95% 0 mm
02:45 5.4 °C 4.7 °C 1005 hPa Calm     95% 0 mm
02:50 5.4 °C 4.7 °C 1005.3 hPa Calm     95% 0 mm
02:55 5.3 °C 4.6 °C 1005.3 hPa Calm     95% 0 mm
03:00 5 °C 4.3 °C 1005.3 hPa Calm     95% 0 mm
03:05 4.8 °C 4.1 °C 1005.3 hPa Calm     95% 0 mm
03:10 4.7 °C 3.9 °C 1005.3 hPa Calm     95% 0 mm
03:15 4.6 °C 3.9 °C 1005 hPa Calm     95% 0 mm
03:20 4.5 °C 3.8 °C 1005 hPa Calm     95% 0 mm
03:25 4.5 °C 3.8 °C 1005 hPa Calm     95% 0 mm
03:30 4.4 °C 3.7 °C 1005 hPa Calm     95% 0 mm
03:35 4.3 °C 3.6 °C 1005 hPa Calm     95% 0 mm
03:40 4.1 °C 3.4 °C 1005 hPa Calm     95% 0 mm
03:45 3.9 °C 3.2 °C 1005 hPa Calm     95% 0 mm
03:50 3.9 °C 3.2 °C 1005 hPa Calm     95% 0 mm
03:54 3.9 °C 3.2 °C 1005 hPa Calm     95% 0 mm
04:00 3.8 °C 3.1 °C 1005 hPa Calm     95% 0 mm
04:05 3.8 °C 3.1 °C 1005 hPa Calm     95% 0 mm
04:10 3.7 °C 3 °C 1005 hPa Calm     95% 0 mm
04:15 3.8 °C 3.2 °C 1005 hPa Calm     96% 0 mm
04:20 3.8 °C 3.3 °C 1005 hPa Calm     96% 0 mm
04:25 3.9 °C 3.4 °C 1005 hPa Calm   4.8 km/h 96% 0 mm
04:30 3.9 °C 3.3 °C 1005 hPa North 1.6 km/h 4.8 km/h 96% 0 mm
04:35 3.9 °C 3.4 °C 1005 hPa Calm   3.2 km/h 96% 0 mm
04:40 3.9 °C 3.3 °C 1005 hPa Calm   3.2 km/h 96% 0 mm
04:45 3.8 °C 3.3 °C 1005 hPa Calm   3.2 km/h 96% 0 mm
04:50 3.8 °C 3.2 °C 1005 hPa Calm     96% 0 mm
04:55 3.7 °C 3.1 °C 1005 hPa NNW 1.6 km/h 6.4 km/h 96% 0 mm
04:59 3.6 °C 2.8 °C 1005 hPa North 1.6 km/h 4.8 km/h 95% 0 mm
05:05 3.6 °C 2.8 °C 1005 hPa North 3.2 km/h 3.2 km/h 95% 0 mm
05:10 3.5 °C 2.9 °C 1005 hPa NNW 1.6 km/h 6.4 km/h 96% 0 mm
05:15 3.5 °C 2.9 °C 1005 hPa NNE 3.2 km/h 4.8 km/h 96% 0 mm
05:20 3.4 °C 2.8 °C 1004.6 hPa NNE 1.6 km/h 4.8 km/h 96% 0 mm
05:25 3.4 °C 2.9 °C 1004.6 hPa NE 1.6 km/h 6.4 km/h 96% 0 mm
05:29 3.4 °C 2.8 °C 1004.6 hPa NE 3.2 km/h 6.4 km/h 96% 0 mm
05:35 3.4 °C 2.8 °C 1004.6 hPa NE 1.6 km/h 4.8 km/h 96% 0 mm
05:40 3.4 °C 2.8 °C 1004.6 hPa NE 1.6 km/h 4.8 km/h 96% 0 mm
05:45 3.3 °C 2.8 °C 1004.6 hPa NE 1.6 km/h 6.4 km/h 96% 0 mm
05:50 3.3 °C 2.8 °C 1004.6 hPa NE 3.2 km/h 6.4 km/h 96% 0 mm
05:55 3.3 °C 2.8 °C 1004.6 hPa NE 1.6 km/h 4.8 km/h 96% 0 mm
06:00 3.3 °C 2.8 °C 1004.6 hPa NE 1.6 km/h 4.8 km/h 96% 0 mm
06:04 3.3 °C 2.8 °C 1004.6 hPa Calm     96% 0 mm
06:09 3.3 °C 2.8 °C 1004.6 hPa Calm     96% 0 mm
06:15 3.3 °C 2.8 °C 1004.6 hPa Calm     96% 0 mm
06:20 3.3 °C 2.8 °C 1005 hPa Calm     96% 0 mm
06:25 3.3 °C 2.7 °C 1004.6 hPa NE 3.2 km/h 4.8 km/h 96% 0 mm
06:30 3.3 °C 2.7 °C 1004.6 hPa NE 3.2 km/h 4.8 km/h 96% 0 mm
06:35 3.2 °C 2.7 °C 1005 hPa NE 3.2 km/h 4.8 km/h 96% 0 mm
06:40 3.2 °C 2.7 °C 1005 hPa NE 1.6 km/h 3.2 km/h 96% 0 mm
06:45 3.2 °C 2.7 °C 1004.6 hPa NE 3.2 km/h 3.2 km/h 96% 0 mm
06:50 3.2 °C 2.6 °C 1004.6 hPa NE 1.6 km/h 3.2 km/h 96% 0 mm
06:55 3.2 °C 2.6 °C 1004.6 hPa NE 1.6 km/h 6.4 km/h 96% 0 mm
07:00 3.1 °C 2.6 °C 1004.6 hPa NE 3.2 km/h 6.4 km/h 96% 0 mm
07:05 3.1 °C 2.5 °C 1004.6 hPa NE 1.6 km/h 8 km/h 96% 0 mm
07:09 3.1 °C 2.5 °C 1004.6 hPa NE 3.2 km/h 8 km/h 96% 0 mm
07:14 3 °C 2.4 °C 1004.6 hPa NE 8 km/h 14.5 km/h 96% 0 mm
07:19 2.9 °C 2.3 °C 1004.6 hPa East 8 km/h 12.9 km/h 96% 0 mm
07:24 2.8 °C 2.3 °C 1004.6 hPa ENE 4.8 km/h 11.3 km/h 96% 0 mm
07:30 2.8 °C 2.2 °C 1004.3 hPa NE 4.8 km/h 11.3 km/h 96% 0 mm
07:35 2.7 °C 2.2 °C 1004.3 hPa NE 4.8 km/h 12.9 km/h 96% 0 mm
07:39 2.7 °C 2.1 °C 1004.3 hPa NE 4.8 km/h 12.9 km/h 96% 0 mm
07:44 2.7 °C 2.1 °C 1004.3 hPa NE 4.8 km/h 12.9 km/h 96% 0 mm
07:50 2.7 °C 2.2 °C 1004.3 hPa ENE 4.8 km/h 12.9 km/h 96% 0 mm
07:55 2.8 °C 2.3 °C 1004.6 hPa ENE 6.4 km/h 12.9 km/h 96% 0 mm
08:00 2.9 °C 2.3 °C 1004.6 hPa NE 3.2 km/h 11.3 km/h 96% 0 mm
08:05 2.9 °C 2.3 °C 1004.6 hPa NE 3.2 km/h 9.7 km/h 96% 0 mm
08:10 2.9 °C 2.4 °C 1004.6 hPa ENE 4.8 km/h 8 km/h 96% 0 mm
08:14 3 °C 2.4 °C 1005 hPa ENE 4.8 km/h 8 km/h 96% 0 mm
08:19 3.1 °C 2.6 °C 1004.6 hPa ENE 1.6 km/h 6.4 km/h 96% 0 mm
08:24 3.3 °C 2.7 °C 1004.6 hPa ENE 3.2 km/h 6.4 km/h 96% 0 mm
08:29 3.4 °C 2.9 °C 1004.6 hPa NE 3.2 km/h 9.7 km/h 96% 0 mm
08:34 3.6 °C 3 °C 1005 hPa ENE 1.6 km/h 6.4 km/h 96% 0 mm
08:40 3.7 °C 3.2 °C 1005 hPa ENE 3.2 km/h 6.4 km/h 96% 0 mm
08:44 3.8 °C 3.2 °C 1005 hPa ENE 3.2 km/h 8 km/h 96% 0 mm
08:49 3.9 °C 3.3 °C 1005.3 hPa ENE 3.2 km/h 8 km/h 96% 0 mm
08:55 3.9 °C 3.4 °C 1005.3 hPa ENE 1.6 km/h 8 km/h 96% 0 mm
09:00 4.1 °C 3.5 °C 1005.6 hPa ENE 1.6 km/h 8 km/h 96% 0 mm
09:05 4.2 °C 3.6 °C 1005.6 hPa ENE 1.6 km/h 6.4 km/h 96% 0 mm
09:10 4.2 °C 3.7 °C 1005.6 hPa NE 4.8 km/h 6.4 km/h 96% 0 mm
09:14 4.3 °C 3.7 °C 1005.6 hPa NE 4.8 km/h 8 km/h 96% 0 mm
09:19 4.3 °C 3.8 °C 1005.6 hPa ENE 3.2 km/h 6.4 km/h 96% 0 mm
09:24 4.4 °C 3.8 °C 1005.6 hPa NE 3.2 km/h 8 km/h 96% 0 mm
09:29 4.5 °C 3.9 °C 1006 hPa NE 4.8 km/h 6.4 km/h 96% 0 mm
09:34 4.6 °C 4 °C 1006 hPa ENE 3.2 km/h 6.4 km/h 96% 0 mm
09:39 4.7 °C 4.1 °C 1006 hPa ENE 4.8 km/h 6.4 km/h 96% 0 mm
09:44 4.8 °C 4.2 °C 1006 hPa NE 6.4 km/h 6.4 km/h 96% 0 mm
09:49 4.9 °C 4.3 °C 1006 hPa NNE 3.2 km/h 9.7 km/h 96% 0 mm
09:54 5 °C 4.4 °C 1006 hPa NE 6.4 km/h 11.3 km/h 96% 0 mm
09:59 5.1 °C 4.5 °C 1006 hPa ENE 1.6 km/h 8 km/h 96% 0 mm
10:04 5.3 °C 4.8 °C 1006 hPa NNE 3.2 km/h 11.3 km/h 97% 0 mm
10:09 5.4 °C 5 °C 1006.3 hPa NE 4.8 km/h 11.3 km/h 97% 0 mm
10:15 5.7 °C 5.2 °C 1006.3 hPa ENE 4.8 km/h 11.3 km/h 97% 0 mm
10:19 5.8 °C 5.2 °C 1006.3 hPa NE 4.8 km/h 11.3 km/h 96% 0 mm
10:24 6.1 °C 5.4 °C 1006 hPa NE 4.8 km/h 11.3 km/h 96% 0 mm
10:29 6.3 °C 5.7 °C 1006 hPa NE 4.8 km/h 11.3 km/h 96% 0 mm
10:35 6.6 °C 5.9 °C 1006.3 hPa NE 4.8 km/h 11.3 km/h 96% 0 mm
10:40 6.8 °C 6.2 °C 1006 hPa NE 1.6 km/h 8 km/h 96% 0 mm
10:45 7.1 °C 6.4 °C 1006.3 hPa ENE 3.2 km/h 9.7 km/h 96% 0 mm
10:49 7.1 °C 6.5 °C 1006.3 hPa NE 4.8 km/h 9.7 km/h 96% 0 mm
10:54 7.2 °C 6.4 °C 1006 hPa NE 6.4 km/h 11.3 km/h 95% 0 mm
10:59 7.3 °C 6.6 °C 1006 hPa NE 6.4 km/h 11.3 km/h 95% 0 mm
11:04 7.6 °C 6.8 °C 1006 hPa ENE 6.4 km/h 11.3 km/h 95% 0 mm
11:09 7.7 °C 6.9 °C 1006 hPa NE 8 km/h 9.7 km/h 95% 0 mm
11:14 7.8 °C 7.1 °C 1006 hPa NE 4.8 km/h 11.3 km/h 95% 0 mm
11:19 7.9 °C 7.1 °C 1006 hPa NE 4.8 km/h 9.7 km/h 94% 0 mm
11:24 8.1 °C 7.2 °C 1006 hPa NE 4.8 km/h 9.7 km/h 94% 0 mm
11:29 8.2 °C 7.3 °C 1006 hPa NE 1.6 km/h 8 km/h 94% 0 mm
11:34 8.4 °C 7.3 °C 1005.6 hPa NE 1.6 km/h 6.4 km/h 93% 0 mm
11:39 8.4 °C 7.3 °C 1005.6 hPa ENE 6.4 km/h 11.3 km/h 93% 0 mm
11:45 8.3 °C 7.3 °C 1005.6 hPa ENE 4.8 km/h 11.3 km/h 93% 0 mm
11:50 8.2 °C 6.9 °C 1005.6 hPa NNE 4.8 km/h 8 km/h 92% 0 mm
11:54 8.2 °C 6.9 °C 1005.6 hPa NE 3.2 km/h 8 km/h 92% 0 mm
11:59 8.1 °C 6.9 °C 1005.6 hPa NNE 3.2 km/h 8 km/h 92% 0 mm
12:04 8.1 °C 6.8 °C 1005.3 hPa NNE 3.2 km/h 6.4 km/h 92% 0 mm
12:09 8.1 °C 6.8 °C 1005.3 hPa NNE 4.8 km/h 6.4 km/h 92% 0 mm
12:14 7.9 °C 6.7 °C 1005.3 hPa NE 9.7 km/h 11.3 km/h 92% 0 mm
12:19 7.9 °C 6.7 °C 1005.3 hPa NE 4.8 km/h 11.3 km/h 92% 0 mm
12:24 7.8 °C 6.6 °C 1005 hPa NE 4.8 km/h 11.3 km/h 92% 0 mm
12:29 7.7 °C 6.5 °C 1005 hPa NNE 4.8 km/h 11.3 km/h 92% 0 mm
12:34 7.6 °C 6.6 °C 1005 hPa NE 4.8 km/h 11.3 km/h 93% 0 mm
12:39 7.4 °C 6.4 °C 1005 hPa NNE 1.6 km/h 6.4 km/h 93% 0 mm
12:44 7.3 °C 6.3 °C 1005 hPa NNE 6.4 km/h 9.7 km/h 93% 0 mm
12:49 7.1 °C 6.1 °C 1005 hPa NNE 3.2 km/h 11.3 km/h 93% 0 mm
12:54 7.1 °C 6.2 °C 1004.6 hPa NE 3.2 km/h 16.1 km/h 94% 0 mm
12:59 7.2 °C 6.3 °C 1004.6 hPa NE 4.8 km/h 16.1 km/h 94% 0.25 mm
13:04 7.3 °C 6.4 °C 1004.6 hPa NNE 3.2 km/h 6.4 km/h 94% 0.25 mm
13:09 7.2 °C 6.3 °C 1004.6 hPa NE 3.2 km/h 9.7 km/h 94% 0.51 mm
13:14 7.2 °C 6.3 °C 1004.6 hPa NE 4.8 km/h 9.7 km/h 94% 0.76 mm
13:19 7.2 °C 6.3 °C 1004.6 hPa NE 4.8 km/h 12.9 km/h 94% 0.76 mm
13:24 7.2 °C 6.3 °C 1004.6 hPa ENE 3.2 km/h 11.3 km/h 94% 0.76 mm
13:30 7.2 °C 6.3 °C 1004.6 hPa NE 4.8 km/h 11.3 km/h 94% 0.76 mm
13:34 7.2 °C 6.3 °C 1004.6 hPa NE 4.8 km/h 9.7 km/h 94% 0.76 mm
13:39 7.2 °C 6.3 °C 1004.6 hPa NNE 3.2 km/h 12.9 km/h 94% 0.76 mm
13:44 7.2 °C 6.3 °C 1004.6 hPa NNE 3.2 km/h 6.4 km/h 94% 1.02 mm
13:49 7.2 °C 6.5 °C 1004.6 hPa NNE 3.2 km/h 8 km/h 95% 1.27 mm
13:54 7.2 °C 6.5 °C 1004.3 hPa NNE 6.4 km/h 6.4 km/h 95% 1.52 mm
13:59 7.3 °C 6.6 °C 1004.3 hPa NE 3.2 km/h 6.4 km/h 95% 1.52 mm
14:04 7.3 °C 6.6 °C 1004.3 hPa NE 4.8 km/h 11.3 km/h 95% 1.52 mm
14:09 7.3 °C 6.6 °C 1004.3 hPa NE 4.8 km/h 11.3 km/h 95% 1.52 mm
14:14 7.3 °C 6.6 °C 1004.3 hPa NE 4.8 km/h 11.3 km/h 95% 1.27 mm
14:19 7.3 °C 6.6 °C 1003.9 hPa NE 6.4 km/h 14.5 km/h 95% 1.27 mm
14:24 7.2 °C 6.5 °C 1003.9 hPa NE 6.4 km/h 14.5 km/h 95% 1.52 mm
14:30 7.2 °C 6.4 °C 1003.9 hPa NE 8 km/h 17.7 km/h 95% 1.52 mm
14:34 7.1 °C 6.4 °C 1003.9 hPa NE 4.8 km/h 14.5 km/h 95% 1.52 mm
14:39 7.1 °C 6.2 °C 1003.9 hPa NE 6.4 km/h 17.7 km/h 94% 1.78 mm
14:44 7 °C 6.1 °C 1003.9 hPa ENE 8 km/h 16.1 km/h 94% 1.52 mm
14:49 7 °C 6.3 °C 1003.9 hPa ESE 11.3 km/h 14.5 km/h 95% 1.27 mm
14:54 7 °C 6.3 °C 1003.9 hPa NE 8 km/h 14.5 km/h 95% 1.02 mm
14:59 7 °C 6.3 °C 1004.3 hPa East 8 km/h 16.1 km/h 95% 0.76 mm
15:04 7.1 °C 6.3 °C 1004.3 hPa NE 8 km/h 16.1 km/h 95% 0.76 mm
15:09 7.1 °C 6.3 °C 1004.3 hPa NE 8 km/h 16.1 km/h 95% 0.76 mm
15:14 7.1 °C 6.3 °C 1004.3 hPa ENE 6.4 km/h 14.5 km/h 95% 0.76 mm
15:19 7.1 °C 6.3 °C 1004.3 hPa ENE 8 km/h 17.7 km/h 95% 0.76 mm
15:24 7.1 °C 6.2 °C 1004.6 hPa ENE 9.7 km/h 19.3 km/h 94% 0.51 mm
15:29 7.1 °C 6.3 °C 1004.6 hPa NE 9.7 km/h 19.3 km/h 95% 0.51 mm
15:34 7.1 °C 6.3 °C 1004.6 hPa NNE 4.8 km/h 17.7 km/h 95% 0.51 mm
15:39 7.1 °C 6.4 °C 1004.3 hPa NE 9.7 km/h 17.7 km/h 95% 0.25 mm
15:44 7.1 °C 6.4 °C 1004.6 hPa NE 6.4 km/h 19.3 km/h 95% 0.25 mm
15:49 7.1 °C 6.4 °C 1004.6 hPa NE 8 km/h 14.5 km/h 95% 0.25 mm
15:54 7.1 °C 6.3 °C 1004.6 hPa NNE 11.3 km/h 17.7 km/h 95% 0.25 mm
15:59 7.1 °C 6.3 °C 1004.6 hPa East 11.3 km/h 17.7 km/h 95% 0.25 mm
16:04 7 °C 6.1 °C 1004.6 hPa NE 11.3 km/h 17.7 km/h 94% 0.25 mm
16:09 6.9 °C 6 °C 1004.6 hPa NE 9.7 km/h 20.9 km/h 94% 0 mm
16:14 6.8 °C 5.9 °C 1004.6 hPa NE 11.3 km/h 24.1 km/h 94% 0 mm
16:19 6.8 °C 6.1 °C 1004.6 hPa NE 9.7 km/h 24.1 km/h 95% 0 mm
16:24 6.6 °C 5.7 °C 1004.6 hPa NE 9.7 km/h 20.9 km/h 94% 0 mm
16:29 6.4 °C 5.6 °C 1004.6 hPa NE 9.7 km/h 20.9 km/h 94% 0 mm
16:34 6.3 °C 5.4 °C 1004.6 hPa NE 11.3 km/h 24.1 km/h 94% 0 mm
16:39 6.1 °C 5.2 °C 1004.6 hPa East 14.5 km/h 19.3 km/h 94% 0 mm
16:44 6 °C 5.1 °C 1004.6 hPa NE 9.7 km/h 20.9 km/h 94% 0 mm
16:49 5.9 °C 5.1 °C 1004.6 hPa NE 14.5 km/h 20.9 km/h 94% 0 mm
16:54 5.8 °C 4.9 °C 1004.6 hPa ENE 16.1 km/h 22.5 km/h 94% 0 mm
16:59 5.7 °C 4.8 °C 1005 hPa NNE 20.9 km/h 25.7 km/h 94% 0 mm
17:04 5.6 °C 4.7 °C 1005 hPa NE 11.3 km/h 25.7 km/h 94% 0 mm
17:09 5.5 °C 4.6 °C 1005 hPa NE 8 km/h 24.1 km/h 94% 0 mm
17:14 5.4 °C 4.6 °C 1005 hPa NE 12.9 km/h 24.1 km/h 94% 0 mm
17:19 5.3 °C 4.4 °C 1005 hPa NE 14.5 km/h 29 km/h 94% 0 mm
17:24 5.3 °C 4.4 °C 1005 hPa NE 16.1 km/h 29 km/h 94% 0 mm
17:29 5.2 °C 4.3 °C 1005 hPa NE 14.5 km/h 25.7 km/h 94% 0 mm
17:34 5.2 °C 4.3 °C 1005.3 hPa NE 11.3 km/h 24.1 km/h 94% 0 mm
17:39 5.1 °C 4.4 °C 1005.3 hPa ENE 12.9 km/h 22.5 km/h 95% 0 mm
17:44 5.1 °C 4.3 °C 1005.3 hPa NE 9.7 km/h 22.5 km/h 95% 0 mm
17:49 5 °C 4.3 °C 1005.3 hPa NE 11.3 km/h 24.1 km/h 95% 0 mm
17:54 4.9 °C 4.1 °C 1005.3 hPa NE 14.5 km/h 24.1 km/h 94% 0 mm
17:59 4.9 °C 4 °C 1005.3 hPa NE 12.9 km/h 24.1 km/h 94% 0 mm
18:04 4.8 °C 3.9 °C 1005.3 hPa ENE 16.1 km/h 22.5 km/h 94% 0 mm
18:09 4.7 °C 4 °C 1005.6 hPa NE 12.9 km/h 25.7 km/h 95% 0 mm
18:14 4.7 °C 3.9 °C 1005.3 hPa NE 12.9 km/h 27.4 km/h 95% 0 mm
18:19 4.7 °C 3.8 °C 1005.3 hPa NNE 9.7 km/h 24.1 km/h 94% 0 mm
18:24 4.6 °C 3.9 °C 1005.3 hPa NE 20.9 km/h 24.1 km/h 95% 0 mm
18:29 4.6 °C 3.8 °C 1005.3 hPa NE 12.9 km/h 29 km/h 95% 0 mm
18:34 4.6 °C 3.8 °C 1005.6 hPa ENE 11.3 km/h 27.4 km/h 95% 0 mm
18:39 4.5 °C 3.8 °C 1005.6 hPa East 8 km/h 22.5 km/h 95% 0 mm
18:44 4.5 °C 3.8 °C 1005.6 hPa NE 11.3 km/h 25.7 km/h 95% 0 mm
18:49 4.5 °C 3.8 °C 1005.6 hPa ENE 12.9 km/h 29 km/h 95% 0 mm
18:54 4.5 °C 3.8 °C 1006 hPa NE 12.9 km/h 24.1 km/h 95% 0 mm
18:59 4.4 °C 3.7 °C 1006 hPa ENE 11.3 km/h 24.1 km/h 95% 0 mm
19:04 4.4 °C 3.7 °C 1006 hPa NE 11.3 km/h 22.5 km/h 95% 0 mm
19:09 4.3 °C 3.6 °C 1006 hPa NE 11.3 km/h 24.1 km/h 95% 0 mm
19:14 4.3 °C 3.6 °C 1006 hPa NE 12.9 km/h 25.7 km/h 95% 0 mm
19:19 4.2 °C 3.4 °C 1006 hPa ENE 17.7 km/h 32.2 km/h 95% 0 mm
19:24 4.1 °C 3.4 °C 1006 hPa East 11.3 km/h 27.4 km/h 95% 0 mm
19:29 4.1 °C 3.4 °C 1006 hPa NE 4.8 km/h 24.1 km/h 95% 0 mm
19:34 4.1 °C 3.3 °C 1006 hPa ENE 17.7 km/h 22.5 km/h 95% 0 mm
19:39 4.1 °C 3.3 °C 1006.3 hPa NE 9.7 km/h 17.7 km/h 95% 0 mm
19:44 3.9 °C 3.2 °C 1006.3 hPa NE 11.3 km/h 29 km/h 95% 0 mm
19:49 3.9 °C 3.2 °C 1006.3 hPa NE 12.9 km/h 29 km/h 95% 0 mm
19:54 3.8 °C 3.1 °C 1006.3 hPa NE 11.3 km/h 22.5 km/h 95% 0 mm
19:59 3.8 °C 3.1 °C 1006.3 hPa NE 17.7 km/h 24.1 km/h 95% 0 mm
20:04 3.8 °C 3.1 °C 1006.3 hPa ENE 12.9 km/h 24.1 km/h 95% 0 mm
20:09 3.7 °C 3 °C 1006.3 hPa ENE 19.3 km/h 19.3 km/h 95% 0 mm
20:14 3.7 °C 2.9 °C 1006.3 hPa ENE 12.9 km/h 24.1 km/h 95% 0 mm
20:19 3.6 °C 2.9 °C 1006.7 hPa ENE 12.9 km/h 24.1 km/h 95% 0 mm
20:24 3.6 °C 2.9 °C 1006.7 hPa East 9.7 km/h 16.1 km/h 95% 0 mm
20:29 3.6 °C 2.8 °C 1006.3 hPa ENE 17.7 km/h 19.3 km/h 95% 0 mm
20:34 3.6 °C 2.8 °C 1006.3 hPa NE 16.1 km/h 20.9 km/h 95% 0 mm
20:39 3.6 °C 2.8 °C 1006.3 hPa ENE 4.8 km/h 19.3 km/h 95% 0 mm
20:44 3.6 °C 2.8 °C 1006.7 hPa East 11.3 km/h 17.7 km/h 95% 0 mm
20:49 3.6 °C 2.8 °C 1006.7 hPa ENE 9.7 km/h 20.9 km/h 95% 0 mm
20:54 3.5 °C 2.8 °C 1006.7 hPa ENE 17.7 km/h 17.7 km/h 95% 0 mm
20:59 3.5 °C 2.8 °C 1006.7 hPa ENE 14.5 km/h 19.3 km/h 95% 0 mm
21:04 3.4 °C 2.7 °C 1006.7 hPa NE 8 km/h 20.9 km/h 95% 0 mm
21:09 3.3 °C 2.6 °C 1006.7 hPa NE 6.4 km/h 17.7 km/h 95% 0 mm
21:14 3.3 °C 2.6 °C 1006.7 hPa ENE 17.7 km/h 20.9 km/h 95% 0 mm
21:19 3.3 °C 2.6 °C 1006.3 hPa NE 12.9 km/h 24.1 km/h 95% 0 mm
21:24 3.3 °C 2.6 °C 1006.7 hPa NE 12.9 km/h 25.7 km/h 95% 0 mm
21:29 3.2 °C 2.5 °C 1006.7 hPa NE 12.9 km/h 25.7 km/h 95% 0 mm
21:34 3.2 °C 2.4 °C 1006.7 hPa NNE 6.4 km/h 17.7 km/h 95% 0 mm
21:39 3.2 °C 2.5 °C 1006.7 hPa NE 12.9 km/h 24.1 km/h 95% 0 mm
21:44 3.2 °C 2.4 °C 1006.7 hPa East 22.5 km/h 24.1 km/h 95% 0 mm
21:49 3.2 °C 2.4 °C 1006.7 hPa ENE 12.9 km/h 24.1 km/h 95% 0 mm
21:54 3.2 °C 2.4 °C 1006.7 hPa ENE 12.9 km/h 24.1 km/h 95% 0 mm
21:59 3.1 °C 2.4 °C 1006.7 hPa NE 12.9 km/h 24.1 km/h 95% 0 mm
22:04 3.1 °C 2.4 °C 1006.7 hPa NE 4.8 km/h 20.9 km/h 95% 0 mm
22:09 3.1 °C 2.4 °C 1006.7 hPa NE 19.3 km/h 22.5 km/h 95% 0 mm
22:14 3.1 °C 2.3 °C 1006.7 hPa ENE 14.5 km/h 25.7 km/h 95% 0 mm
22:19 3.1 °C 2.2 °C 1006.7 hPa NE 12.9 km/h 25.7 km/h 94% 0 mm
22:24 3 °C 2.1 °C 1006.3 hPa ENE 11.3 km/h 22.5 km/h 94% 0 mm
22:29 3 °C 2.1 °C 1006.3 hPa NE 11.3 km/h 27.4 km/h 94% 0 mm
22:34 3 °C 2.1 °C 1006.7 hPa NE 12.9 km/h 27.4 km/h 94% 0 mm
22:39 2.9 °C 2.1 °C 1006.3 hPa ENE 12.9 km/h 20.9 km/h 94% 0 mm
22:44 2.9 °C 2.1 °C 1006.7 hPa ENE 11.3 km/h 19.3 km/h 94% 0 mm
22:49 2.9 °C 2.1 °C 1006.7 hPa ENE 17.7 km/h 19.3 km/h 94% 0 mm
22:54 2.9 °C 2 °C 1006.7 hPa NE 11.3 km/h 24.1 km/h 94% 0 mm
22:59 2.9 °C 2 °C 1006.7 hPa ENE 11.3 km/h 24.1 km/h 94% 0.25 mm
23:04 2.9 °C 2 °C 1006.7 hPa NE 12.9 km/h 22.5 km/h 94% 0.25 mm
23:09 2.8 °C 1.9 °C 1006.7 hPa NNE 9.7 km/h 22.5 km/h 94% 0.25 mm
23:14 2.9 °C 2 °C 1006.7 hPa ENE 4.8 km/h 19.3 km/h 94% 0.25 mm
23:19 2.8 °C 1.9 °C 1006.7 hPa ENE 11.3 km/h 22.5 km/h 94% 0.25 mm
23:24 2.8 °C 1.9 °C 1006.7 hPa ENE 11.3 km/h 17.7 km/h 94% 0.25 mm
23:29 2.8 °C 1.9 °C 1006.7 hPa ENE 9.7 km/h 17.7 km/h 94% 0.25 mm
23:34 2.8 °C 1.9 °C 1006.7 hPa NE 4.8 km/h 19.3 km/h 94% 0.25 mm
23:39 2.8 °C 1.9 °C 1006.7 hPa NE 9.7 km/h 19.3 km/h 94% 0.25 mm
23:44 2.8 °C 2.1 °C 1007 hPa ENE 12.9 km/h 16.1 km/h 95% 0.25 mm
23:49 2.8 °C 2.1 °C 1006.7 hPa NE 6.4 km/h 17.7 km/h 95% 0.25 mm
23:54 2.8 °C 2.1 °C 1006.7 hPa NE 17.7 km/h 20.9 km/h 95% 0.25 mm
23:59 2.8 °C 2.1 °C 1006.7 hPa ENE 8 km/h 20.9 km/h 95% 0 mm
Buffalo, New York, USA
Compliments of Weather Underground - 2.5 mb